Time;durP1;ratioP1;P1;durP2;ratioP2;P2;SDS_P1;SDS_P2;PMS_P1;PMS_P2;Temp;Humidity;BMP_temperature;BMP_pressure;BME280_temperature;BME280_humidity;BME280_pressure;Samples;Min_cycle;Max_cycle;Signal;HPM_P1;HPM_P2
2021/07/30 05:54:18;;;;;;;;;;;;;;;;;;;;;
2021/07/30 06:08:08;;;;;;;;;;;;;;;;;;;;;
2021/07/30 06:17:43;;;;;;;;;;;;;;;;;;;;;
2021/07/30 06:20:49;;;;;;;;;;;;;;;;;;;;;
2021/07/30 06:23:48;;;;;;;;;;;;;;;;;;;;;
2021/07/30 06:26:46;;;;;;;10.35;6.97;;;16.30;90.20;;;;;;6136029;23;20065;-91
2021/07/30 06:36:03;;;;;;;;;;;;;;;;;;;;;
2021/07/30 06:39:23;;;;;;;18.77;13.27;;;16.50;90.10;;;;;;6070436;23;20047;-90
2021/07/30 07:36:12;;;;;;;10.60;5.20;;;18.00;87.80;;;;;;6103564;23;20844;31
2021/07/30 07:38:52;;;;;;;10.48;5.50;;;18.10;87.70;;;;;;6096733;23;20029;-85
2021/07/30 07:42:00;;;;;;;8.65;4.70;;;18.20;87.50;;;;;;6097170;23;20041;-86
2021/07/30 07:44:31;;;;;;;8.10;4.78;;;18.30;87.30;;;;;;6070931;23;20038;-86
2021/07/30 07:47:00;;;;;;;8.73;4.95;;;18.30;87.10;;;;;;6071939;23;20006;-85
2021/07/30 07:49:49;;;;;;;8.18;4.78;;;18.40;87.00;;;;;;6096472;23;20014;-85
2021/07/30 07:52:20;;;;;;;8.98;4.88;;;18.50;86.90;;;;;;6095751;23;20097;-87
2021/07/30 07:55:10;;;;;;;;;;;;;;;;;;;;;
2021/07/30 07:58:02;;;;;;;;;;;;;;;;;;;;;
2021/07/30 08:00:33;;;;;;;6.30;4.30;;;18.60;86.40;;;;;;6099392;23;20050;-84
2021/07/30 08:03:18;;;;;;;7.40;4.45;;;18.70;86.30;;;;;;6098144;23;20007;-84
2021/07/30 08:05:59;;;;;;;;;;;;;;;;;;;;;
2021/07/30 08:08:58;;;;;;;10.00;4.30;;;18.80;85.90;;;;;;6098320;23;20148;-84
2021/07/30 08:11:44;;;;;;;4.78;3.95;;;18.90;85.80;;;;;;6095999;23;20091;-84
2021/07/30 08:14:12;;;;;;;5.95;3.75;;;19.00;85.70;;;;;;6095661;23;20067;-84
2021/07/30 08:16:48;;;;;;;8.30;3.45;;;19.10;85.50;;;;;;6095878;23;20030;-84
2021/07/30 08:19:53;;;;;;;6.00;3.78;;;19.20;85.40;;;;;;6097445;23;20037;-87
2021/07/30 08:22:24;;;;;;;5.65;3.55;;;19.30;85.10;;;;;;6097596;23;20009;-87
2021/07/30 08:25:14;;;;;;;7.90;3.38;;;19.40;84.90;;;;;;6095333;23;20051;-83
2021/07/30 08:28:00;;;;;;;6.13;3.28;;;19.50;84.40;;;;;;6092905;23;20003;-87
2021/07/30 08:30:29;;;;;;;6.22;3.42;;;19.60;84.10;;;;;;6067263;23;20081;-84
2021/07/30 08:33:17;;;;;;;10.02;3.80;;;19.70;83.70;;;;;;6092356;23;20010;-84
2021/07/30 08:35:55;;;;;;;6.30;3.38;;;19.80;83.50;;;;;;6097094;23;20337;-84
2021/07/30 08:38:43;;;;;;;4.13;2.78;;;19.80;83.30;;;;;;6096341;23;20014;-86
2021/07/30 08:41:11;;;;;;;5.00;3.22;;;19.90;83.10;;;;;;6074289;23;20011;-83
2021/07/30 08:43:58;;;;;;;;;;;;;;;;;;;;;
2021/07/30 15:20:30;;;;;;;;;;;;;;;;;;;;;
2021/07/30 15:23:14;;;;;;;;;;;;;;;;;;;;;
2021/07/30 15:25:56;;;;;;;;;;;;;;;;;;;;;
2021/07/30 15:28:58;;;;;;;5.53;4.75;;;22.30;81.00;;;;;;6128663;23;20069;-91
2021/07/30 15:32:00;;;;;;;;;;;;;;;;;;;;;
2021/07/30 15:34:49;;;;;;;4.47;3.92;;;22.30;81.00;;;;;;6121716;23;20108;-92
2021/07/30 15:37:33;;;;;;;6.10;4.22;;;22.30;81.10;;;;;;6082778;23;20014;-90
2021/07/30 15:40:23;;;;;;;5.60;5.10;;;22.30;81.00;;;;;;6107333;23;20433;-94
2021/07/30 15:43:22;;;;;;;;;;;;;;;;;;;;;
2021/07/30 15:46:12;;;;;;;;;;;;;;;;;;;;;
2021/07/30 15:48:51;;;;;;;5.40;4.00;;;22.30;80.90;;;;;;6109216;23;20471;-93
2021/07/30 15:51:35;;;;;;;4.90;4.50;;;22.40;80.90;;;;;;6084238;23;20002;-92
2021/07/30 15:54:15;;;;;;;6.72;4.32;;;22.50;80.90;;;;;;6107221;23;20017;-92
2021/07/30 15:57:02;;;;;;;6.50;3.42;;;22.50;80.60;;;;;;6106459;23;20009;-93
2021/07/30 15:59:31;;;;;;;4.68;4.10;;;22.60;80.40;;;;;;6087402;23;20088;-91
2021/07/30 16:02:32;;;;;;;;;;;;;;;;;;;;;
2021/07/30 16:05:03;;;;;;;4.53;3.80;;;22.70;80.10;;;;;;6131516;23;20077;-90
2021/07/30 16:07:43;;;;;;;4.60;3.58;;;22.60;80.00;;;;;;6104339;23;20006;-92
2021/07/30 16:10:33;;;;;;;3.43;3.00;;;22.70;80.00;;;;;;6058418;23;20002;-92
2021/07/30 16:13:38;;;;;;;;;;;;;;;;;;;;;
2021/07/30 16:19:05;;;;;;;5.22;3.10;;;22.70;79.10;;;;;;6124582;23;20094;-93
2021/07/30 16:22:07;;;;;;;;;;;;;;;;;;;;;
2021/07/30 16:24:57;;;;;;;;;;;;;;;;;;;;;
2021/07/30 16:27:33;;;;;;;;;;;22.70;77.80;;;;;;6107647;23;20487;-93
2021/07/30 16:30:13;;;;;;;4.07;2.03;;;22.60;77.70;;;;;;6082850;23;19904;-92
2021/07/30 16:33:06;;;;;;;3.40;2.63;;;22.50;77.20;;;;;;6083920;23;20038;-90
2021/07/30 16:36:03;;;;;;;3.05;2.10;;;22.50;77.10;;;;;;6130920;23;20006;-90
2021/07/30 16:38:41;;;;;;;5.32;3.00;;;22.40;78.00;;;;;;6106413;23;20009;-91
2021/07/30 16:48:04;;;;;;;;;;;;;;;;;;;;;
2021/07/30 16:54:18;;;;;;;;;;;;;;;;;;;;;
2021/07/30 16:57:13;;;;;;;4.07;2.20;;;21.30;83.70;;;;;;6070113;23;20113;-91
2021/07/30 17:00:16;;;;;;;3.28;1.90;;;21.10;84.20;;;;;;6046335;23;20003;-93
2021/07/30 17:03:05;;;;;;;;;;;;;;;;;;;;;
2021/07/30 17:06:27;;;;;;;2.95;2.17;;;20.90;84.90;;;;;;6085111;23;20081;-89
2021/07/30 17:09:28;;;;;;;;;;;;;;;;;;;;;
2021/07/30 17:13:03;;;;;;;;;;;;;;;;;;;;;
2021/07/30 17:18:44;;;;;;;3.00;2.55;;;20.60;87.10;;;;;;6112880;23;20543;-90
2021/07/30 17:30:54;;;;;;;3.53;2.65;;;20.50;89.00;;;;;;6133024;23;20037;-91
2021/07/30 17:34:06;;;;;;;11.55;9.05;;;20.50;89.00;;;;;;6106830;23;20006;-91
2021/07/30 17:39:50;;;;;;;6.90;4.70;;;20.60;89.60;;;;;;6131082;23;20005;-90
2021/07/30 17:42:46;;;;;;;;;;;;;;;;;;;;;
2021/07/30 17:45:44;;;;;;;5.43;3.70;;;20.70;89.90;;;;;;6130107;23;20081;-90
2021/07/30 17:48:42;;;;;;;4.55;3.20;;;20.70;89.80;;;;;;6099586;23;20012;-90
2021/07/30 17:51:59;;;;;;;;;;;;;;;;;;;;;
2021/07/30 17:54:50;;;;;;;4.38;3.03;;;20.70;89.70;;;;;;6128852;23;20117;-92
2021/07/30 17:57:33;;;;;;;;;;;;;;;;;;;;;
2021/07/30 18:00:19;;;;;;;;;;;;;;;;;;;;;
2021/07/30 18:31:52;;;;;;;;;;;;;;;;;;;;;
2021/07/30 18:35:04;;;;;;;;;;;;;;;;;;;;;
2021/07/30 19:20:41;;;;;;;;;;;;;;;;;;;;;
